Time;durP1;ratioP1;P1;durP2;ratioP2;P2;SDS_P1;SDS_P2;PMS_P1;PMS_P2;Temp;Humidity;BMP_temperature;BMP_pressure;BME280_temperature;BME280_humidity;BME280_pressure;Samples;Min_cycle;Max_cycle;Signal;HPM_P1;HPM_P2
2021/11/11 00:01:19;;;;;;;;;;;12.50;99.90;;;;;;6127886;23;20017;-79
2021/11/11 00:03:44;;;;;;;;;;;12.50;99.90;;;;;;6101465;23;19909;-78
2021/11/11 00:06:10;;;;;;;;;;;12.50;99.90;;;;;;6126840;23;20349;-78
2021/11/11 00:08:36;;;;;;;;;;;12.50;99.90;;;;;;6127265;23;19939;-79
2021/11/11 00:11:02;;;;;;;;;;;12.50;99.90;;;;;;6127351;23;20202;-78
2021/11/11 00:13:27;;;;;;;;;;;12.50;99.90;;;;;;6127180;23;20374;-78
2021/11/11 00:15:53;;;;;;;;;;;12.50;99.90;;;;;;6127691;23;20324;-78
2021/11/11 00:18:19;;;;;;;;;;;12.50;99.90;;;;;;6127206;23;20180;-78
2021/11/11 00:20:44;;;;;;;;;;;12.40;99.90;;;;;;6126829;23;20233;-78
2021/11/11 00:23:11;;;;;;;;;;;12.40;99.90;;;;;;6126447;23;19905;-78
2021/11/11 00:25:37;;;;;;;;;;;12.30;99.90;;;;;;6127483;23;19911;-77
2021/11/11 00:28:02;;;;;;;;;;;12.30;99.90;;;;;;6127234;23;19932;-78
2021/11/11 00:30:28;;;;;;;;;;;12.40;99.90;;;;;;6127918;23;19928;-79
2021/11/11 00:32:54;;;;;;;;;;;12.40;99.90;;;;;;6126522;23;19905;-78
2021/11/11 00:35:24;;;;;;;;;;;12.30;99.90;;;;;;6126251;23;20003;-77
2021/11/11 00:37:50;;;;;;;;;;;12.20;99.90;;;;;;6125639;23;19905;-78
2021/11/11 00:40:16;;;;;;;;;;;12.20;99.90;;;;;;6125867;23;20277;-78
2021/11/11 00:42:42;;;;;;;;;;;12.20;99.90;;;;;;6124135;23;19908;-78
2021/11/11 00:45:08;;;;;;;;;;;12.20;99.90;;;;;;6100714;23;20242;-79
2021/11/11 00:47:33;;;;;;;;;;;12.20;99.90;;;;;;6127560;23;19905;-79
2021/11/11 00:49:59;;;;;;;;;;;12.20;99.90;;;;;;6127745;23;19912;-78
2021/11/11 00:52:25;;;;;;;;;;;12.10;99.90;;;;;;6127570;23;20322;-78
2021/11/11 00:54:50;;;;;;;;;;;12.10;99.90;;;;;;6126950;23;19988;-78
2021/11/11 00:57:16;;;;;;;;;;;12.20;99.90;;;;;;6127286;23;19980;-79
2021/11/11 00:59:42;;;;;;;;;;;12.10;99.90;;;;;;6127672;23;19909;-79
2021/11/11 01:02:09;;;;;;;;;;;12.20;99.90;;;;;;6127015;23;19909;-79
2021/11/11 01:04:36;;;;;;;;;;;12.20;99.90;;;;;;6100539;23;19932;-78
2021/11/11 01:07:02;;;;;;;;;;;12.10;99.90;;;;;;6125788;23;19960;-79
2021/11/11 01:09:29;;;;;;;;;;;12.10;99.90;;;;;;6126644;23;19987;-80
2021/11/11 01:11:55;;;;;;;;;;;12.10;99.90;;;;;;6126555;23;19905;-78
2021/11/11 01:14:21;;;;;;;;;;;12.20;99.90;;;;;;6126921;23;19928;-79
2021/11/11 01:16:46;;;;;;;;;;;12.20;99.90;;;;;;6125511;23;19932;-80
2021/11/11 01:19:12;;;;;;;;;;;12.20;99.90;;;;;;6126155;23;19905;-79
2021/11/11 01:21:38;;;;;;;;;;;12.10;99.90;;;;;;6127449;23;19912;-78
2021/11/11 01:24:03;;;;;;;;;;;12.00;99.90;;;;;;6126334;23;19936;-79
2021/11/11 01:26:29;;;;;;;;;;;12.10;99.90;;;;;;6100222;23;20222;-79
2021/11/11 01:28:55;;;;;;;;;;;12.10;99.90;;;;;;6127198;23;19905;-79
2021/11/11 01:31:21;;;;;;;;;;;12.20;99.90;;;;;;6127081;23;19955;-79
2021/11/11 01:33:46;;;;;;;;;;;12.10;99.90;;;;;;6127060;23;19988;-79
2021/11/11 01:36:12;;;;;;;;;;;12.10;99.90;;;;;;6125866;23;19909;-82
2021/11/11 01:38:38;;;;;;;;;;;12.10;99.90;;;;;;6128082;23;19905;-79
2021/11/11 01:41:05;;;;;;;;;;;12.10;99.90;;;;;;6126958;23;19905;-78
2021/11/11 01:43:30;;;;;;;;;;;12.10;99.90;;;;;;6126905;23;20105;-78
2021/11/11 01:45:56;;;;;;;;;;;12.10;99.90;;;;;;6126239;23;19920;-78
2021/11/11 01:48:22;;;;;;;;;;;12.00;99.90;;;;;;6126638;23;19909;-79
2021/11/11 01:50:48;;;;;;;;;;;12.00;99.90;;;;;;6126701;23;19928;-80
2021/11/11 01:53:15;;;;;;;;;;;12.00;99.90;;;;;;6127624;23;19933;-79
2021/11/11 01:55:41;;;;;;;;;;;12.00;99.90;;;;;;6126721;23;19905;-78
2021/11/11 01:58:07;;;;;;;;;;;12.00;99.90;;;;;;6099969;23;19909;-79
2021/11/11 02:00:36;;;;;;;;;;;11.90;99.90;;;;;;6125996;23;19916;-79
2021/11/11 02:03:06;;;;;;;;;;;11.90;99.90;;;;;;6127217;23;20202;-78
2021/11/11 02:05:33;;;;;;;;;;;11.90;99.90;;;;;;6126556;23;19991;-78
2021/11/11 02:07:59;;;;;;;;;;;11.90;99.90;;;;;;6127093;23;19987;-78
2021/11/11 02:10:25;;;;;;;;;;;11.90;99.90;;;;;;6126661;23;19905;-78
2021/11/11 02:12:51;;;;;;;;;;;11.90;99.90;;;;;;6126786;23;19956;-78
2021/11/11 02:15:18;;;;;;;;;;;11.80;99.90;;;;;;6127971;23;19908;-79
2021/11/11 02:17:43;;;;;;;;;;;11.80;99.90;;;;;;6102568;23;19905;-79
2021/11/11 02:20:11;;;;;;;;;;;11.80;99.90;;;;;;6128865;23;19919;-78
2021/11/11 02:22:37;;;;;;;;;;;11.80;99.90;;;;;;6127149;23;20289;-78
2021/11/11 02:25:10;;;;;;;;;;;11.80;99.90;;;;;;6127762;23;20214;-79
2021/11/11 02:27:36;;;;;;;;;;;11.80;99.90;;;;;;6127982;23;19991;-79
2021/11/11 02:30:03;;;;;;;;;;;11.90;99.90;;;;;;6128424;23;19940;-79
2021/11/11 02:32:30;;;;;;;;;;;11.80;99.90;;;;;;6128600;23;19916;-77
2021/11/11 02:34:56;;;;;;;;;;;11.80;99.90;;;;;;6102138;23;19911;-78
2021/11/11 02:37:23;;;;;;;;;;;11.80;99.90;;;;;;6126949;23;19909;-78
2021/11/11 02:39:50;;;;;;;;;;;11.80;99.90;;;;;;6127935;23;19912;-80
2021/11/11 02:42:17;;;;;;;;;;;11.80;99.90;;;;;;6127982;23;19932;-79
2021/11/11 02:44:43;;;;;;;;;;;11.80;99.90;;;;;;6127970;23;19943;-78
2021/11/11 02:47:09;;;;;;;;;;;11.80;99.90;;;;;;6128041;23;19925;-78
2021/11/11 02:49:34;;;;;;;;;;;11.80;99.90;;;;;;6128098;23;19909;-81
2021/11/11 02:52:01;;;;;;;;;;;11.80;99.90;;;;;;6128493;23;19905;-78
2021/11/11 02:54:26;;;;;;;;;;;11.90;99.90;;;;;;6101828;23;19905;-78
2021/11/11 02:56:52;;;;;;;;;;;11.90;99.90;;;;;;6127638;23;19905;-78
2021/11/11 02:59:18;;;;;;;;;;;11.90;99.90;;;;;;6128163;23;20381;-78
2021/11/11 03:01:43;;;;;;;;;;;11.90;99.90;;;;;;6127579;23;19905;-81
2021/11/11 03:04:09;;;;;;;;;;;11.80;99.90;;;;;;6126958;23;19916;-78
2021/11/11 03:06:38;;;;;;;;;;;11.80;99.90;;;;;;6128259;23;20404;-78
2021/11/11 03:09:04;;;;;;;;;;;11.80;99.90;;;;;;6128150;23;19908;-78
2021/11/11 03:11:30;;;;;;;;;;;11.70;99.90;;;;;;6127011;23;19905;-79
2021/11/11 03:13:56;;;;;;;;;;;11.70;99.90;;;;;;6127182;23;19933;-78
2021/11/11 03:16:22;;;;;;;;;;;11.60;99.90;;;;;;6126776;23;20245;-78
2021/11/11 03:18:48;;;;;;;;;;;11.60;99.90;;;;;;6127010;23;19912;-78
2021/11/11 03:21:14;;;;;;;;;;;11.60;99.90;;;;;;6101771;23;19904;-78
2021/11/11 03:23:40;;;;;;;;;;;11.60;99.90;;;;;;6127585;23;19969;-77
2021/11/11 03:26:05;;;;;;;;;;;11.80;99.90;;;;;;6126670;23;19909;-78
2021/11/11 03:28:31;;;;;;;;;;;11.80;99.90;;;;;;6127388;23;19909;-77
2021/11/11 03:30:57;;;;;;;;;;;11.70;99.90;;;;;;6126599;23;20341;-78
2021/11/11 03:33:22;;;;;;;;;;;11.80;99.90;;;;;;6127614;23;20336;-78
2021/11/11 03:35:48;;;;;;;;;;;11.70;99.90;;;;;;6128296;23;19905;-77
2021/11/11 03:38:14;;;;;;;;;;;11.70;99.90;;;;;;6136117;23;19904;-78
2021/11/11 03:40:56;;;;;;;;;;;;;;;;;;;;;
2021/11/11 03:43:34;;;;;;;;;;;11.70;99.90;;;;;;6133808;23;19952;-79
2021/11/11 03:46:00;;;;;;;;;;;11.70;99.90;;;;;;6127322;23;20338;-77
2021/11/11 03:48:25;;;;;;;;;;;11.60;99.90;;;;;;6135043;23;19905;-77
2021/11/11 03:50:51;;;;;;;;;;;11.60;99.90;;;;;;6136271;23;19905;-77
2021/11/11 03:53:17;;;;;;;;;;;11.50;99.90;;;;;;6135649;23;19912;-77
2021/11/11 03:55:42;;;;;;;;;;;11.50;99.90;;;;;;6134803;23;20004;-77
2021/11/11 03:58:14;;;;;;;;;;;11.50;99.90;;;;;;6109106;23;19915;-77
2021/11/11 04:00:40;;;;;;;;;;;11.50;99.90;;;;;;6136458;23;19905;-77
2021/11/11 04:03:06;;;;;;;;;;;11.40;99.90;;;;;;6109427;23;19932;-77
2021/11/11 04:05:32;;;;;;;;;;;11.50;99.90;;;;;;6113584;23;20325;-77
2021/11/11 04:07:57;;;;;;;;;;;11.50;99.90;;;;;;6114812;23;19905;-77
2021/11/11 04:10:24;;;;;;;;;;;11.60;99.90;;;;;;6116434;23;19925;-77
2021/11/11 04:12:49;;;;;;;;;;;11.60;99.90;;;;;;6144625;23;19904;-77
2021/11/11 04:15:15;;;;;;;;;;;11.60;99.90;;;;;;6143705;23;19911;-78
2021/11/11 04:17:41;;;;;;;;;;;11.60;99.90;;;;;;6144034;23;20304;-77
2021/11/11 04:20:07;;;;;;;;;;;11.60;99.90;;;;;;6143440;23;19920;-77
2021/11/11 04:22:32;;;;;;;;;;;11.50;99.90;;;;;;6115009;23;19905;-77
2021/11/11 04:25:02;;;;;;;;;;;11.50;99.90;;;;;;6140821;23;19913;-77
2021/11/11 04:27:34;;;;;;;;;;;11.40;99.90;;;;;;6139734;23;19905;-77
2021/11/11 04:30:18;;;;;;;;;;;11.30;99.90;;;;;;6139041;23;20004;-77
2021/11/11 04:32:44;;;;;;;;;;;11.20;99.90;;;;;;6135655;23;19905;-77
2021/11/11 04:35:11;;;;;;;;;;;11.20;99.90;;;;;;6108807;23;19905;-77
2021/11/11 05:04:34;;;;;;;;;;;11.10;99.90;;;;;;6150005;23;19928;-77
2021/11/11 05:07:00;;;;;;;;;;;11.10;99.90;;;;;;6141467;23;19905;-78
2021/11/11 05:09:26;;;;;;;;;;;11.00;99.90;;;;;;6141484;23;20226;-76
2021/11/11 05:11:52;;;;;;;;;;;11.00;99.90;;;;;;6141262;23;19908;-77
2021/11/11 05:14:17;;;;;;;;;;;11.00;99.90;;;;;;6142186;23;19905;-77
2021/11/11 05:16:43;;;;;;;;;;;10.90;99.90;;;;;;6140612;23;19918;-77
2021/11/11 05:19:09;;;;;;;;;;;11.00;99.90;;;;;;6139528;23;19905;-77
2021/11/11 05:21:34;;;;;;;;;;;11.00;99.90;;;;;;6113576;23;19928;-77
2021/11/11 05:24:00;;;;;;;;;;;10.90;99.90;;;;;;6113241;23;20008;-78
2021/11/11 05:26:26;;;;;;;;;;;10.70;99.90;;;;;;6113916;23;19921;-77
2021/11/11 05:28:51;;;;;;;;;;;10.60;99.90;;;;;;6111859;23;19916;-77
2021/11/11 05:31:17;;;;;;;;;;;10.50;99.90;;;;;;6140088;23;19912;-77
2021/11/11 05:33:43;;;;;;;;;;;10.50;99.90;;;;;;6139840;23;19905;-77
2021/11/11 05:36:09;;;;;;;;;;;10.50;99.90;;;;;;6140688;23;19979;-78
2021/11/11 05:38:34;;;;;;;;;;;10.50;99.90;;;;;;6139914;23;19964;-77
2021/11/11 05:41:00;;;;;;;;;;;10.50;99.90;;;;;;6138564;23;20245;-77
2021/11/11 05:43:26;;;;;;;;;;;10.50;99.90;;;;;;6133265;23;19916;-77
2021/11/11 05:45:52;;;;;;;;;;;10.50;99.90;;;;;;6131511;23;19917;-77
2021/11/11 05:48:18;;;;;;;;;;;10.50;99.90;;;;;;6106297;23;20396;-78
2021/11/11 05:50:44;;;;;;;;;;;10.50;99.90;;;;;;6130125;23;19932;-78
2021/11/11 05:53:10;;;;;;;;;;;10.60;99.90;;;;;;6129558;23;19905;-77
2021/11/11 05:55:36;;;;;;;;;;;10.60;99.90;;;;;;6132915;23;19905;-77
2021/11/11 05:58:02;;;;;;;;;;;10.60;99.90;;;;;;6139455;23;19916;-77
2021/11/11 06:00:28;;;;;;;;;;;10.50;99.90;;;;;;6139988;23;19944;-77
2021/11/11 06:02:54;;;;;;;;;;;10.60;99.90;;;;;;6138272;23;19927;-78
2021/11/11 06:05:20;;;;;;;;;;;10.60;99.90;;;;;;6139442;23;19916;-78
2021/11/11 06:07:46;;;;;;;;;;;10.60;99.90;;;;;;6137711;23;20246;-77
2021/11/11 06:10:12;;;;;;;;;;;10.70;99.90;;;;;;6140750;23;19932;-77
2021/11/11 06:12:38;;;;;;;;;;;10.70;99.90;;;;;;6140143;23;19905;-77
2021/11/11 06:15:04;;;;;;;;;;;10.70;99.90;;;;;;6139818;23;19916;-78
2021/11/11 06:17:29;;;;;;;;;;;10.90;99.90;;;;;;6139443;23;19905;-77
2021/11/11 06:19:56;;;;;;;;;;;11.00;99.90;;;;;;6138574;23;19953;-77
2021/11/11 06:22:22;;;;;;;;;;;11.10;99.90;;;;;;6138064;23;19928;-78
2021/11/11 06:24:47;;;;;;;;;;;11.00;99.90;;;;;;6139046;23;19940;-77
2021/11/11 06:27:13;;;;;;;;;;;11.20;99.90;;;;;;6111497;23;19905;-77
2021/11/11 06:29:39;;;;;;;;;;;11.20;99.90;;;;;;6111064;23;19916;-77
2021/11/11 06:32:05;;;;;;;;;;;11.20;99.90;;;;;;6137715;23;19925;-77
2021/11/11 06:34:31;;;;;;;;;;;11.20;99.90;;;;;;6136529;23;19905;-78
2021/11/11 06:36:56;;;;;;;;;;;11.30;99.90;;;;;;6135541;23;20315;-77
2021/11/11 06:39:22;;;;;;;;;;;11.40;99.90;;;;;;6135819;23;19909;-77
2021/11/11 06:41:48;;;;;;;;;;;11.40;99.90;;;;;;6135554;23;19905;-77
2021/11/11 06:44:20;;;;;;;;;;;11.40;99.90;;;;;;6135821;23;19920;-77
2021/11/11 06:46:46;;;;;;;;;;;11.40;99.90;;;;;;6135464;23;19905;-77
2021/11/11 06:49:12;;;;;;;;;;;11.50;99.90;;;;;;6134589;23;19909;-77
2021/11/11 06:51:38;;;;;;;;;;;11.50;99.90;;;;;;6111422;23;19983;-77
2021/11/11 06:54:04;;;;;;;;;;;11.50;99.90;;;;;;6111858;23;19928;-78
2021/11/11 06:56:30;;;;;;;;;;;11.60;99.90;;;;;;6137618;23;19905;-78
2021/11/11 06:58:55;;;;;;;;;;;11.60;99.90;;;;;;6137467;23;20162;-78
2021/11/11 07:01:21;;;;;;;;;;;11.70;99.90;;;;;;6112127;23;19909;-78
2021/11/11 07:03:48;;;;;;;;;;;11.80;99.90;;;;;;6138495;23;19909;-78
2021/11/11 07:06:14;;;;;;;;;;;11.80;99.90;;;;;;6138175;23;19911;-78
2021/11/11 07:08:40;;;;;;;;;;;11.90;99.90;;;;;;6114566;23;20237;-78
2021/11/11 07:11:07;;;;;;;;;;;12.00;99.90;;;;;;6142159;23;19912;-77
2021/11/11 07:13:33;;;;;;;;;;;12.10;99.90;;;;;;6116965;23;20352;-77
2021/11/11 07:16:00;;;;;;;;;;;12.30;99.90;;;;;;6142832;23;19905;-77
2021/11/11 07:18:26;;;;;;;;;;;12.50;99.90;;;;;;6143156;23;19905;-78
2021/11/11 07:20:53;;;;;;;;;;;12.60;99.90;;;;;;6116555;23;19913;-77
2021/11/11 07:23:22;;;;;;;;;;;12.70;99.90;;;;;;6141771;23;19928;-78
2021/11/11 07:25:52;;;;;;;;;;;12.80;99.90;;;;;;6134626;23;19934;-75
2021/11/11 07:28:17;;;;;;;;;;;13.00;99.90;;;;;;6127614;23;20152;-76
2021/11/11 07:30:44;;;;;;;;;;;13.10;99.90;;;;;;6126977;23;19905;-73
2021/11/11 07:33:10;;;;;;;;;;;13.10;99.90;;;;;;6127759;23;19915;-76
2021/11/11 07:35:36;;;;;;;;;;;13.20;99.90;;;;;;6127434;23;19904;-78
2021/11/11 07:38:02;;;;;;;;;;;13.30;99.90;;;;;;6127322;23;19936;-76
2021/11/11 07:40:28;;;;;;;;;;;13.40;99.90;;;;;;6126979;23;19912;-71
2021/11/11 07:42:54;;;;;;;;;;;13.50;99.90;;;;;;6128241;23;19905;-76
2021/11/11 07:45:29;;;;;;;;;;;13.50;99.90;;;;;;6127388;23;20356;-76
2021/11/11 07:47:57;;;;;;;;;;;13.60;99.90;;;;;;6127173;23;19972;-76
2021/11/11 07:50:23;;;;;;;;;;;13.60;99.90;;;;;;6128614;23;19905;-78
2021/11/11 07:52:49;;;;;;;;;;;13.70;99.90;;;;;;6128400;23;19905;-74
2021/11/11 07:55:15;;;;;;;;;;;13.80;99.90;;;;;;6128174;23;20278;-75
2021/11/11 07:57:41;;;;;;;;;;;13.80;99.90;;;;;;6128143;23;19916;-78
2021/11/11 08:00:08;;;;;;;;;;;13.90;99.90;;;;;;6102702;23;19905;-78
2021/11/11 08:02:34;;;;;;;;;;;13.90;99.90;;;;;;6127863;23;19943;-76
2021/11/11 08:05:00;;;;;;;;;;;13.90;99.90;;;;;;6127846;23;19909;-76
2021/11/11 08:07:26;;;;;;;;;;;14.00;99.90;;;;;;6127186;23;19912;-75
2021/11/11 08:09:51;;;;;;;;;;;14.10;99.90;;;;;;6127379;23;19924;-78
2021/11/11 08:12:17;;;;;;;;;;;14.20;99.90;;;;;;6127774;23;19988;-77
2021/11/11 08:14:43;;;;;;;;;;;14.30;99.90;;;;;;6126494;23;19905;-76
2021/11/11 08:17:10;;;;;;;;;;;14.40;99.90;;;;;;6127037;23;19905;-77
2021/11/11 08:19:36;;;;;;;;;;;14.50;99.90;;;;;;6102128;23;20097;-77
2021/11/11 08:22:02;;;;;;;;;;;14.60;99.90;;;;;;6129690;23;19909;-76
2021/11/11 08:24:28;;;;;;;;;;;14.70;99.90;;;;;;6128243;23;19932;-78
2021/11/11 08:26:54;;;;;;;;;;;14.80;99.90;;;;;;6128405;23;19912;-77
2021/11/11 08:29:19;;;;;;;;;;;14.80;99.90;;;;;;6128397;23;19984;-76
2021/11/11 08:31:46;;;;;;;;;;;14.90;99.90;;;;;;6128170;23;20363;-76
2021/11/11 08:34:11;;;;;;;;;;;14.90;99.90;;;;;;6127412;23;19909;-74
2021/11/11 08:36:37;;;;;;;;;;;15.00;99.90;;;;;;6099713;23;19911;-75
2021/11/11 08:39:04;;;;;;;;;;;15.10;99.90;;;;;;6127645;23;20344;-75
2021/11/11 08:41:30;;;;;;;;;;;15.20;99.90;;;;;;6128038;23;19905;-74
2021/11/11 08:43:57;;;;;;;;;;;15.30;99.90;;;;;;6101138;23;19913;-74
2021/11/11 08:46:23;;;;;;;;;;;15.50;99.90;;;;;;6127047;23;20336;-75
2021/11/11 08:48:49;;;;;;;;;;;15.50;99.90;;;;;;6126739;23;20221;-75
2021/11/11 08:51:15;;;;;;;;;;;15.60;99.90;;;;;;6127375;23;20396;-75
2021/11/11 08:53:41;;;;;;;;;;;15.50;99.90;;;;;;6127368;23;19921;-75
2021/11/11 08:56:06;;;;;;;;;;;15.50;99.90;;;;;;6127039;23;19905;-76
2021/11/11 08:58:34;;;;;;;;;;;15.40;99.90;;;;;;6127053;23;20329;-76
2021/11/11 09:01:01;;;;;;;;;;;15.40;99.90;;;;;;6126840;23;20245;-77
2021/11/11 09:03:27;;;;;;;;;;;15.40;99.90;;;;;;6126982;23;20318;-75
2021/11/11 09:05:53;;;;;;;;;;;15.40;99.90;;;;;;6126928;23;19916;-75
2021/11/11 09:08:19;;;;;;;;;;;15.40;99.90;;;;;;6127451;23;19905;-74
2021/11/11 09:10:45;;;;;;;;;;;15.40;99.90;;;;;;6128002;23;19920;-75
2021/11/11 09:13:11;;;;;;;;;;;15.50;99.90;;;;;;6128394;23;19924;-75
2021/11/11 09:15:38;;;;;;;;;;;15.50;99.90;;;;;;6127554;23;20015;-78
2021/11/11 09:18:04;;;;;;;;;;;15.60;99.90;;;;;;6126738;23;19928;-74
2021/11/11 09:20:31;;;;;;;;;;;15.60;99.90;;;;;;6127629;23;19960;-75
2021/11/11 09:22:58;;;;;;;;;;;15.70;99.90;;;;;;6110690;23;19905;-76
2021/11/11 09:25:25;;;;;;;;;;;15.60;99.90;;;;;;6129195;23;19960;-76
2021/11/11 09:27:51;;;;;;;;;;;15.70;99.90;;;;;;6128167;23;20681;-76
2021/11/11 09:30:19;;;;;;;;;;;15.70;99.90;;;;;;6126560;23;19905;-76
2021/11/11 09:32:45;;;;;;;;;;;15.70;99.90;;;;;;6127792;23;19939;-75
2021/11/11 09:35:11;;;;;;;;;;;15.70;99.90;;;;;;6126538;23;19912;-76
2021/11/11 09:37:37;;;;;;;;;;;15.70;99.90;;;;;;6125334;23;19905;-74
2021/11/11 09:40:04;;;;;;;;;;;15.80;99.90;;;;;;6127318;23;20223;-76
2021/11/11 09:42:30;;;;;;;;;;;15.90;99.90;;;;;;6127115;23;19905;-76
2021/11/11 09:44:56;;;;;;;;;;;15.90;99.90;;;;;;6101080;23;19913;-76
2021/11/11 09:47:22;;;;;;;;;;;15.90;99.90;;;;;;6127736;23;19983;-75
2021/11/11 09:49:48;;;;;;;;;;;16.00;99.90;;;;;;6126454;23;19909;-76
2021/11/11 09:52:14;;;;;;;;;;;16.10;99.90;;;;;;6127525;23;19980;-76
2021/11/11 09:59:52;;;;;;;;;;;16.20;99.90;;;;;;6126752;23;19956;-76
2021/11/11 10:02:18;;;;;;;;;;;16.20;99.90;;;;;;6127465;23;20253;-75
2021/11/11 10:04:44;;;;;;;;;;;16.40;99.90;;;;;;6126550;23;19944;-75
2021/11/11 10:07:10;;;;;;;;;;;16.40;99.90;;;;;;6127231;23;19905;-75
2021/11/11 10:09:39;;;;;;;;;;;16.60;99.90;;;;;;6125536;23;19916;-75
2021/11/11 10:12:06;;;;;;;;;;;16.60;99.90;;;;;;6099035;23;20400;-75
2021/11/11 10:14:34;;;;;;;;;;;16.60;99.90;;;;;;6126033;23;19909;-75
2021/11/11 10:17:01;;;;;;;;;;;16.60;99.90;;;;;;6098105;23;19905;-76
2021/11/11 10:19:28;;;;;;;;;;;16.60;99.90;;;;;;6099668;23;19905;-76
2021/11/11 10:22:04;;;;;;;;;;;16.60;99.90;;;;;;6126355;23;19919;-76
2021/11/11 10:25:10;;;;;;;;;;;16.60;99.90;;;;;;6126025;23;19979;-76
2021/11/11 10:30:14;;;;;;;;;;;16.40;99.90;;;;;;6127445;23;19905;-77
2021/11/11 10:32:44;;;;;;;;;;;16.40;99.90;;;;;;6126212;23;19909;-76
2021/11/11 10:35:10;;;;;;;;;;;16.40;99.90;;;;;;6127171;23;19940;-79
2021/11/11 10:37:40;;;;;;;;;;;16.30;99.90;;;;;;6128937;23;20450;-76
2021/11/11 10:40:06;;;;;;;;;;;16.30;99.90;;;;;;6128201;23;20356;-76
2021/11/11 10:42:33;;;;;;;;;;;16.30;99.90;;;;;;6129110;23;19909;-76
2021/11/11 10:44:59;;;;;;;;;;;16.30;99.90;;;;;;6129091;23;19913;-75
2021/11/11 10:47:30;;;;;;;;;;;16.40;99.90;;;;;;6102581;23;20238;-78
2021/11/11 10:49:56;;;;;;;;;;;16.40;99.90;;;;;;6128146;23;20107;-75
2021/11/11 10:52:33;;;;;;;;;;;16.50;99.90;;;;;;6128289;23;19913;-75
2021/11/11 10:55:16;;;;;;;;;;;16.50;99.90;;;;;;6128409;23;19984;-75
2021/11/11 10:57:47;;;;;;;;;;;16.50;99.90;;;;;;6126825;23;20334;-79
2021/11/11 11:00:19;;;;;;;;;;;16.50;99.90;;;;;;6128158;23;19984;-74
2021/11/11 11:02:57;;;;;;;;;;;16.50;99.90;;;;;;6102042;23;19915;-75
2021/11/11 11:05:24;;;;;;;;;;;16.60;99.90;;;;;;6128488;23;19987;-79
2021/11/11 11:07:54;;;;;;;;;;;16.60;99.90;;;;;;6127466;23;19905;-75
2021/11/11 11:10:19;;;;;;;;;;;16.60;99.90;;;;;;6128212;23;20344;-76
2021/11/11 11:12:45;;;;;;;;;;;16.60;99.90;;;;;;6127309;23;19905;-76
2021/11/11 11:15:30;;;;;;;;;;;16.50;99.90;;;;;;6127795;23;19912;-75
2021/11/11 11:17:57;;;;;;;;;;;16.40;99.90;;;;;;6127576;23;19912;-77
2021/11/11 11:20:27;;;;;;;;;;;16.40;99.90;;;;;;6128355;23;19939;-75
2021/11/11 11:23:11;;;;;;;;;;;16.30;99.90;;;;;;6127702;23;19912;-75
2021/11/11 11:25:37;;;;;;;;;;;16.40;99.90;;;;;;6127798;23;19909;-74
2021/11/11 11:28:22;;;;;;;;;;;16.40;99.90;;;;;;6127301;23;19912;-76
2021/11/11 11:30:50;;;;;;;;;;;16.40;99.90;;;;;;6127802;23;19909;-75
2021/11/11 11:33:22;;;;;;;;;;;16.50;99.90;;;;;;6127002;23;19909;-75
2021/11/11 11:35:48;;;;;;;;;;;16.50;99.90;;;;;;6128283;23;19977;-74
2021/11/11 11:38:23;;;;;;;;;;;16.50;99.90;;;;;;6126618;23;19909;-74
2021/11/11 11:40:49;;;;;;;;;;;16.30;99.90;;;;;;6127899;23;19976;-75
2021/11/11 11:43:28;;;;;;;;;;;16.40;99.90;;;;;;6127202;23;19931;-75
2021/11/11 11:45:54;;;;;;;;;;;16.30;99.90;;;;;;6099651;23;19916;-75
2021/11/11 11:48:22;;;;;;;;;;;16.40;99.90;;;;;;6126554;23;19912;-76
2021/11/11 11:50:53;;;;;;;;;;;16.40;99.90;;;;;;6127351;23;19905;-76
2021/11/11 11:53:24;;;;;;;;;;;16.50;99.90;;;;;;6126457;23;19915;-75
2021/11/11 11:55:58;;;;;;;;;;;16.50;99.90;;;;;;6127922;23;19905;-75
2021/11/11 11:58:59;;;;;;;;;;;16.50;99.90;;;;;;6127628;23;19913;-75
2021/11/11 12:01:27;;;;;;;;;;;16.60;99.90;;;;;;6121690;23;19915;-75
2021/11/11 12:04:16;;;;;;;;;;;16.60;99.90;;;;;;6128083;23;19913;-76
2021/11/11 12:07:01;;;;;;;;;;;16.60;99.90;;;;;;6124554;23;19905;-75
2021/11/11 12:10:19;;;;;;;;;;;16.60;99.90;;;;;;6126859;23;20028;-75
2021/11/11 12:12:43;;;;;;;;;;;16.70;99.90;;;;;;6110694;23;19940;-74
2021/11/11 12:15:17;;;;;;;;;;;16.90;99.90;;;;;;6124224;23;19912;-74
2021/11/11 12:18:11;;;;;;;;;;;16.90;99.90;;;;;;6100735;23;19912;-74
2021/11/11 12:39:43;;;;;;;;;;;17.10;99.90;;;;;;6127446;23;19913;-75
2021/11/11 12:42:11;;;;;;;;;;;17.10;99.90;;;;;;6100379;23;19909;-74
2021/11/11 12:44:57;;;;;;;;;;;17.00;99.90;;;;;;6125896;23;20241;-74
2021/11/11 12:47:43;;;;;;;;;;;17.10;99.90;;;;;;6125981;23;19916;-75
2021/11/11 12:50:23;;;;;;;;;;;17.10;99.90;;;;;;6125608;23;19912;-76
2021/11/11 12:53:09;;;;;;;;;;;17.10;99.90;;;;;;6126687;23;19912;-74
2021/11/11 12:55:36;;;;;;;;;;;16.90;99.90;;;;;;6126704;23;19972;-75
2021/11/11 12:58:03;;;;;;;;;;;16.90;99.90;;;;;;6126350;23;19912;-72
2021/11/11 13:00:48;;;;;;;;;;;16.80;99.90;;;;;;6127059;23;19905;-73
2021/11/11 13:03:14;;;;;;;;;;;16.90;99.90;;;;;;6126997;23;19909;-74
2021/11/11 13:05:52;;;;;;;;;;;16.90;99.90;;;;;;6126088;23;20348;-74
2021/11/11 13:08:18;;;;;;;;;;;16.90;99.90;;;;;;6127038;23;20294;-74
2021/11/11 13:11:14;;;;;;;;;;;16.90;99.90;;;;;;6101314;23;20321;-74
2021/11/11 13:13:40;;;;;;;;;;;16.90;99.90;;;;;;6107331;23;19912;-74
2021/11/11 13:16:13;;;;;;;;;;;16.90;99.90;;;;;;6126482;23;19905;-75
2021/11/11 13:18:40;;;;;;;;;;;17.00;99.90;;;;;;6127220;23;19961;-76
2021/11/11 13:21:10;;;;;;;;;;;17.00;99.90;;;;;;6126561;23;19991;-73
2021/11/11 13:23:55;;;;;;;;;;;17.10;99.90;;;;;;6126787;23;19905;-75
2021/11/11 13:27:06;;;;;;;;;;;17.10;99.90;;;;;;6126529;23;19909;-74
2021/11/11 16:21:28;;;;;;;;;;;14.30;99.90;;;;;;6136353;23;20300;-73
2021/11/11 16:26:21;;;;;;;;;;;14.20;99.90;;;;;;6142946;23;19905;-73
2021/11/11 16:28:51;;;;;;;;;;;14.10;99.90;;;;;;6144099;23;19956;-73
2021/11/11 16:31:18;;;;;;;;;;;14.00;99.90;;;;;;6145823;23;19905;-73
2021/11/11 16:33:44;;;;;;;;;;;13.90;99.90;;;;;;6147082;23;19979;-73
2021/11/11 16:36:10;;;;;;;;;;;13.80;99.90;;;;;;6144359;23;19905;-74
2021/11/11 16:38:36;;;;;;;;;;;13.80;99.90;;;;;;6146262;23;19905;-73
2021/11/11 16:41:02;;;;;;;;;;;13.70;99.90;;;;;;6147126;23;19909;-73
2021/11/11 16:43:28;;;;;;;;;;;13.70;99.90;;;;;;6145657;23;20222;-73
2021/11/11 16:45:54;;;;;;;;;;;13.70;99.90;;;;;;6144919;23;19960;-73
2021/11/11 16:48:20;;;;;;;;;;;13.60;99.90;;;;;;6142190;23;19905;-73
2021/11/11 16:50:45;;;;;;;;;;;13.60;99.90;;;;;;6141980;23;19905;-73
2021/11/11 16:53:11;;;;;;;;;;;13.60;99.90;;;;;;6125359;23;19940;-74
2021/11/11 16:55:37;;;;;;;;;;;13.50;99.90;;;;;;6124433;23;20408;-74
2021/11/11 16:58:03;;;;;;;;;;;13.50;99.90;;;;;;6124116;23;19905;-73
2021/11/11 17:00:29;;;;;;;;;;;13.50;99.90;;;;;;6124624;23;20237;-73
2021/11/11 17:02:55;;;;;;;;;;;13.50;99.90;;;;;;6124997;23;19992;-73
2021/11/11 17:05:22;;;;;;;;;;;13.40;99.90;;;;;;6125114;23;19909;-74
2021/11/11 17:07:50;;;;;;;;;;;13.40;99.90;;;;;;6123456;23;19963;-74
2021/11/11 17:10:16;;;;;;;;;;;13.40;99.90;;;;;;6124916;23;19905;-74
2021/11/11 17:12:41;;;;;;;;;;;13.30;99.90;;;;;;6124607;23;19911;-73
2021/11/11 17:15:08;;;;;;;;;;;13.30;99.90;;;;;;6124309;23;19904;-73
2021/11/11 17:17:35;;;;;;;;;;;13.30;99.90;;;;;;6098113;23;20050;-73
2021/11/11 17:20:01;;;;;;;;;;;13.30;99.90;;;;;;6124487;23;20294;-74
2021/11/11 17:22:39;;;;;;;;;;;13.20;99.90;;;;;;6121803;23;20326;-73
2021/11/11 17:25:31;;;;;;;;;;;13.20;99.90;;;;;;6123676;23;20343;-74
2021/11/11 17:28:05;;;;;;;;;;;13.20;99.90;;;;;;6127732;23;19912;-78
2021/11/11 17:30:31;;;;;;;;;;;13.10;99.90;;;;;;6132011;23;19913;-80
2021/11/11 17:32:57;;;;;;;;;;;13.20;99.90;;;;;;6104870;23;20060;-80
2021/11/11 17:35:23;;;;;;;;;;;13.10;99.90;;;;;;6103732;23;19908;-80
2021/11/11 17:37:49;;;;;;;;;;;13.10;99.90;;;;;;6132959;23;19905;-79
2021/11/11 17:40:15;;;;;;;;;;;13.20;99.90;;;;;;6143455;23;19957;-81
2021/11/11 17:42:41;;;;;;;;;;;13.30;99.90;;;;;;6144984;23;19940;-80
2021/11/11 17:45:08;;;;;;;;;;;13.20;99.90;;;;;;6145291;23;19920;-80
2021/11/11 17:47:35;;;;;;;;;;;13.10;99.90;;;;;;6145387;23;19905;-80
2021/11/11 17:50:05;;;;;;;;;;;13.10;99.90;;;;;;6145725;23;19905;-80
2021/11/11 17:52:31;;;;;;;;;;;13.00;99.90;;;;;;6145807;23;19933;-79
2021/11/11 17:55:00;;;;;;;;;;;13.00;99.90;;;;;;6143922;23;19905;-80
2021/11/11 17:57:32;;;;;;;;;;;12.90;99.90;;;;;;6145348;23;19894;-80
2021/11/11 17:59:58;;;;;;;;;;;12.90;99.90;;;;;;6118600;23;19933;-80
2021/11/11 18:02:28;;;;;;;;;;;12.90;99.90;;;;;;6142103;23;19905;-80
2021/11/11 18:04:57;;;;;;;;;;;12.90;99.90;;;;;;6142899;23;19909;-81
2021/11/11 18:07:26;;;;;;;;;;;12.80;99.90;;;;;;6143510;23;19909;-82
2021/11/11 18:09:58;;;;;;;;;;;12.80;99.90;;;;;;6143758;23;19959;-81
2021/11/11 18:12:34;;;;;;;;;;;12.70;99.90;;;;;;6143106;23;19905;-80